createdAt,value
2018-04-23T00:00:40.169Z,6.27
2018-04-23T00:03:06.637Z,6.33
2018-04-23T00:05:33.139Z,5.70
2018-04-23T00:07:59.503Z,6.90
2018-04-23T00:10:25.975Z,5.70
2018-04-23T00:12:52.374Z,5.50
2018-04-23T00:15:18.717Z,5.93
2018-04-23T00:17:45.101Z,6.97
2018-04-23T00:20:11.490Z,6.07
2018-04-23T00:22:37.874Z,5.10
2018-04-23T00:25:04.274Z,7.00
2018-04-23T00:27:30.649Z,5.37
2018-04-23T00:29:56.973Z,6.67
2018-04-23T00:32:23.343Z,4.97
2018-04-23T00:34:49.804Z,5.93
2018-04-23T00:37:16.166Z,4.73
2018-04-23T00:39:42.654Z,4.90
2018-04-23T00:42:09.051Z,4.83
2018-04-23T00:44:35.410Z,8.57
2018-04-23T00:47:01.909Z,4.93
2018-04-23T00:49:28.297Z,5.77
2018-04-23T00:51:54.683Z,7.77
2018-04-23T00:54:21.043Z,5.43
2018-04-23T00:56:47.385Z,5.90
2018-04-23T00:59:13.771Z,6.20
2018-04-23T01:01:40.163Z,5.13
2018-04-23T01:04:06.550Z,7.53
2018-04-23T01:06:32.947Z,4.77
2018-04-23T01:08:59.311Z,5.07
2018-04-23T01:11:25.698Z,4.67
2018-04-23T01:13:52.107Z,5.27
2018-04-23T01:16:18.442Z,4.83
2018-04-23T01:18:44.912Z,5.87
2018-04-23T01:21:11.278Z,5.90
2018-04-23T01:23:37.685Z,4.80
2018-04-23T01:26:04.071Z,5.00
2018-04-23T01:28:30.423Z,5.07
2018-04-23T01:30:56.876Z,6.20
2018-04-23T01:33:23.243Z,5.60
2018-04-23T01:35:49.600Z,4.83
2018-04-23T01:38:15.998Z,6.27
2018-04-23T01:40:42.352Z,4.97
2018-04-23T01:43:08.742Z,4.43
2018-04-23T01:45:35.109Z,4.80
2018-04-23T01:48:01.465Z,5.13
2018-04-23T01:50:27.827Z,5.13
2018-04-23T01:52:54.205Z,6.37
2018-04-23T01:55:20.557Z,6.87
2018-04-23T01:57:46.897Z,6.40
2018-04-23T02:00:13.240Z,4.50
2018-04-23T02:02:39.619Z,5.17
2018-04-23T02:05:05.999Z,5.17
2018-04-23T02:07:32.369Z,7.50
2018-04-23T02:09:58.770Z,5.10
2018-04-23T02:12:25.160Z,6.97
2018-04-23T02:14:51.642Z,5.47
2018-04-23T02:17:18.046Z,6.47
2018-04-23T02:19:44.497Z,8.80
2018-04-23T02:22:10.874Z,6.57
2018-04-23T02:24:37.271Z,6.57
2018-04-23T02:27:03.690Z,9.97
2018-04-23T02:29:30.070Z,6.57
2018-04-23T02:31:56.458Z,7.63
2018-04-23T02:34:22.790Z,5.77
2018-04-23T02:36:49.248Z,5.70
2018-04-23T02:39:15.622Z,7.73
2018-04-23T02:41:42.012Z,6.27
2018-04-23T02:44:08.321Z,5.23
2018-04-23T02:46:34.704Z,6.73
2018-04-23T02:49:01.070Z,5.53
2018-04-23T02:51:27.398Z,7.27
2018-04-23T02:53:53.871Z,4.40
2018-04-23T02:56:20.246Z,5.40
2018-04-23T02:58:46.603Z,6.13
2018-04-23T03:01:13.070Z,4.60
2018-04-23T03:03:39.400Z,5.17
2018-04-23T03:06:05.762Z,5.83
2018-04-23T03:08:32.169Z,6.63
2018-04-23T03:10:58.599Z,12.30
2018-04-23T03:13:24.949Z,4.90
2018-04-23T03:15:51.466Z,6.67
2018-04-23T03:18:17.898Z,5.93
2018-04-23T03:20:44.331Z,6.67
2018-04-23T03:23:10.676Z,5.10
2018-04-23T03:25:37.031Z,6.70
2018-04-23T03:28:03.426Z,5.50
2018-04-23T03:30:29.806Z,9.77
2018-04-23T03:32:56.293Z,6.90
2018-04-23T03:35:22.684Z,7.63
2018-04-23T03:37:49.055Z,6.37
2018-04-23T03:40:15.409Z,5.53
2018-04-23T03:42:41.853Z,8.17
2018-04-23T03:45:08.233Z,6.33
2018-04-23T03:47:34.618Z,6.37
2018-04-23T03:50:00.985Z,7.73
2018-04-23T03:52:27.455Z,5.63
2018-04-23T03:54:53.838Z,4.93
2018-04-23T03:57:20.214Z,6.97
2018-04-23T03:59:46.581Z,8.33
2018-04-23T04:02:12.956Z,6.50
2018-04-23T04:04:39.335Z,7.37
2018-04-23T04:07:05.727Z,7.63
2018-04-23T04:09:32.109Z,7.60
2018-04-23T04:12:10.684Z,7.57
2018-04-23T04:14:49.334Z,7.03
2018-04-23T04:17:15.785Z,8.77
2018-04-23T04:19:42.243Z,7.40
2018-04-23T04:22:08.625Z,6.23
2018-04-23T04:24:34.994Z,16.30
2018-04-23T04:27:01.361Z,11.43
2018-04-23T04:29:27.819Z,10.47
2018-04-23T04:31:55.101Z,25.67
2018-04-23T04:34:21.543Z,16.60
2018-04-23T04:36:48.038Z,16.53
2018-04-23T04:39:14.388Z,9.03
2018-04-23T04:41:40.787Z,14.07
2018-04-23T04:44:07.174Z,14.73
2018-04-23T04:46:33.694Z,14.60
2018-04-23T04:49:00.082Z,14.50
2018-04-23T04:51:26.665Z,13.73
2018-04-23T04:53:52.968Z,13.83
2018-04-23T04:56:19.349Z,11.13
2018-04-23T04:58:45.812Z,11.87
2018-04-23T05:01:12.301Z,14.90
2018-04-23T05:03:38.902Z,12.07
2018-04-23T05:06:05.444Z,12.33
2018-04-23T05:08:32.185Z,14.70
2018-04-23T05:10:58.566Z,11.80
2018-04-23T05:13:25.029Z,12.03
2018-04-23T05:15:51.488Z,10.00
2018-04-23T05:18:17.890Z,12.87
2018-04-23T05:20:44.414Z,11.83
2018-04-23T05:23:10.947Z,12.77
2018-04-23T05:25:37.333Z,11.27
2018-04-23T05:28:03.761Z,15.63
2018-04-23T05:30:30.111Z,19.50
2018-04-23T05:32:56.453Z,19.70
2018-04-23T05:35:22.825Z,15.57
2018-04-23T05:37:49.198Z,8.33
2018-04-23T05:40:15.546Z,11.67
2018-04-23T05:42:42.150Z,9.63
2018-04-23T05:45:08.582Z,13.43
2018-04-23T05:47:35.151Z,13.30
2018-04-23T05:50:01.595Z,15.13
2018-04-23T05:52:28.005Z,9.87
2018-04-23T05:54:54.390Z,9.50
2018-04-23T05:57:20.935Z,8.67
2018-04-23T05:59:47.361Z,7.87
2018-04-23T06:02:13.946Z,7.90
2018-04-23T06:04:40.330Z,10.27
2018-04-23T06:07:06.701Z,7.33
2018-04-23T06:09:33.114Z,13.20
2018-04-23T06:11:59.628Z,8.40
2018-04-23T06:14:26.234Z,9.70
2018-04-23T06:16:52.778Z,9.77
2018-04-23T06:19:19.186Z,9.10
2018-04-23T06:21:45.548Z,9.17
2018-04-23T06:24:12.207Z,6.93
2018-04-23T06:26:38.580Z,6.07
2018-04-23T06:29:04.929Z,5.77
2018-04-23T06:31:31.311Z,8.03
2018-04-23T06:33:57.715Z,8.73
2018-04-23T06:36:24.297Z,8.00
2018-04-23T06:38:50.633Z,5.03
2018-04-23T06:41:17.018Z,7.67
2018-04-23T06:43:43.358Z,8.30
2018-04-23T06:46:09.826Z,8.77
2018-04-23T06:48:36.235Z,5.23
2018-04-23T06:51:02.605Z,8.33
2018-04-23T06:53:29.002Z,6.20
2018-04-23T06:55:55.437Z,7.43
2018-04-23T06:58:21.809Z,7.53
2018-04-23T07:00:48.195Z,9.00
2018-04-23T07:03:14.758Z,7.30
2018-04-23T07:05:41.113Z,8.27
2018-04-23T07:08:07.597Z,6.97
2018-04-23T07:10:34.125Z,8.37
2018-04-23T07:13:00.464Z,9.90
2018-04-23T07:15:26.840Z,7.07
2018-04-23T07:17:53.785Z,5.70
2018-04-23T07:20:20.224Z,5.27
2018-04-23T07:26:11.437Z,10.17
2018-04-23T07:28:37.910Z,7.57
2018-04-23T07:31:04.691Z,9.00
2018-04-23T07:33:31.056Z,8.90
2018-04-23T07:35:57.373Z,5.43
2018-04-23T07:38:23.856Z,5.17
2018-04-23T07:40:50.192Z,11.47
2018-04-23T07:43:16.577Z,8.03
2018-04-23T07:45:43.006Z,7.70
2018-04-23T07:48:09.754Z,7.03
2018-04-23T07:50:36.318Z,8.17
2018-04-23T07:53:02.747Z,6.73
2018-04-23T07:55:29.197Z,6.30
2018-04-23T07:57:55.514Z,6.57
2018-04-23T08:00:22.208Z,5.13
2018-04-23T08:02:48.557Z,5.63
2018-04-23T08:05:14.933Z,5.97
2018-04-23T08:07:41.256Z,8.00
2018-04-23T08:10:08.848Z,5.80
2018-04-23T08:12:35.357Z,6.40
2018-04-23T08:15:01.920Z,7.77
2018-04-23T08:17:28.257Z,7.93
2018-04-23T08:19:54.605Z,9.50
2018-04-23T08:22:21.012Z,5.90
2018-04-23T08:24:47.378Z,4.17
2018-04-23T08:27:13.801Z,6.07
2018-04-23T08:29:40.219Z,7.87
2018-04-23T08:32:06.665Z,8.57
2018-04-23T08:34:33.341Z,10.67
2018-04-23T08:36:59.738Z,5.03
2018-04-23T08:39:26.201Z,5.37
2018-04-23T08:41:52.617Z,5.87
2018-04-23T08:44:19.125Z,3.63
2018-04-23T08:46:45.525Z,4.47
2018-04-23T08:49:11.935Z,4.57
2018-04-23T08:51:38.325Z,7.00
2018-04-23T08:54:04.726Z,7.27
2018-04-23T08:56:31.109Z,4.37
2018-04-23T08:58:57.477Z,7.40
2018-04-23T09:01:23.922Z,6.90
2018-04-23T09:03:50.384Z,6.83
2018-04-23T09:06:16.873Z,7.83
2018-04-23T09:08:43.350Z,4.73
2018-04-23T09:11:09.702Z,5.83
2018-04-23T09:13:36.291Z,4.53
2018-04-23T09:16:02.756Z,4.50
2018-04-23T09:18:29.190Z,8.97
2018-04-23T09:20:55.584Z,7.47
2018-04-23T09:23:21.953Z,5.83
2018-04-23T09:25:48.417Z,4.80
2018-04-23T09:28:14.810Z,5.97
2018-04-23T09:30:41.386Z,7.57
2018-04-23T09:33:07.773Z,8.03
2018-04-23T09:35:34.737Z,5.93
2018-04-23T09:38:01.397Z,6.83
2018-04-23T09:40:27.774Z,4.47
2018-04-23T09:42:54.140Z,4.73
2018-04-23T09:45:21.118Z,4.47
2018-04-23T09:47:47.901Z,5.90
2018-04-23T09:50:14.410Z,5.43
2018-04-23T09:52:40.834Z,5.90
2018-04-23T09:55:07.205Z,5.40
2018-04-23T09:57:33.589Z,5.37
2018-04-23T10:00:00.133Z,5.73
2018-04-23T10:02:26.577Z,5.93
2018-04-23T10:04:52.921Z,5.57
2018-04-23T10:07:19.320Z,4.23
2018-04-23T10:09:45.694Z,4.37
2018-04-23T10:12:12.109Z,5.53
2018-04-23T10:14:38.453Z,4.37
2018-04-23T10:17:04.793Z,5.70
2018-04-23T10:19:31.229Z,3.63
2018-04-23T10:21:57.596Z,8.33
2018-04-23T10:24:23.969Z,6.70
2018-04-23T10:26:50.329Z,5.70
2018-04-23T10:29:16.784Z,4.60
2018-04-23T10:31:43.166Z,5.00
2018-04-23T10:34:09.521Z,3.40
2018-04-23T10:36:35.942Z,4.80
2018-04-23T10:39:02.502Z,3.93
2018-04-23T10:41:28.950Z,4.93
2018-04-23T10:43:55.317Z,3.90
2018-04-23T10:46:21.716Z,7.20
2018-04-23T10:48:48.078Z,5.03
2018-04-23T10:51:14.554Z,6.00
2018-04-23T10:53:40.990Z,4.77
2018-04-23T10:56:07.361Z,5.80
2018-04-23T10:58:33.782Z,4.07
2018-04-23T11:01:00.165Z,4.57
2018-04-23T11:03:26.608Z,4.17
2018-04-23T11:05:53.094Z,4.10
2018-04-23T11:08:19.693Z,5.50
2018-04-23T11:10:46.206Z,5.07
2018-04-23T11:13:12.797Z,4.60
2018-04-23T11:15:39.157Z,4.00
2018-04-23T11:18:05.523Z,3.70
2018-04-23T11:20:31.933Z,6.93
2018-04-23T11:22:58.325Z,5.87
2018-04-23T11:25:24.990Z,3.50
2018-04-23T11:27:51.470Z,6.13
2018-04-23T11:30:18.081Z,3.93
2018-04-23T11:32:44.771Z,6.07
2018-04-23T11:35:11.212Z,4.50
2018-04-23T11:37:37.687Z,4.57
2018-04-23T11:40:04.146Z,6.27
2018-04-23T11:42:30.705Z,5.37
2018-04-23T11:44:57.619Z,5.10
2018-04-23T11:47:24.310Z,3.93
2018-04-23T11:49:50.935Z,6.20
2018-04-23T11:52:17.330Z,4.17
2018-04-23T11:54:43.901Z,8.27
2018-04-23T11:57:10.265Z,5.13
2018-04-23T11:59:36.640Z,4.37
2018-04-23T12:02:03.284Z,7.10
2018-04-23T12:04:29.806Z,3.70
2018-04-23T12:06:56.376Z,4.47
2018-04-23T12:09:22.776Z,5.30
2018-04-23T12:11:49.161Z,3.30
2018-04-23T12:14:15.789Z,4.57
2018-04-23T12:16:42.188Z,3.70
2018-04-23T12:19:08.566Z,6.17
2018-04-23T12:21:35.005Z,3.60
2018-04-23T12:24:01.414Z,5.47
2018-04-23T12:26:27.827Z,3.97
2018-04-23T12:28:54.337Z,4.40
2018-04-23T12:31:20.769Z,4.83
2018-04-23T12:33:47.348Z,3.50
2018-04-23T12:36:13.730Z,3.80
2018-04-23T12:38:40.106Z,5.30
2018-04-23T12:41:06.505Z,3.03
2018-04-23T12:43:32.854Z,4.97
2018-04-23T12:45:59.323Z,5.90
2018-04-23T12:48:25.658Z,3.30
2018-04-23T12:50:52.158Z,5.27
2018-04-23T12:53:18.587Z,4.93
2018-04-23T12:55:44.984Z,4.20
2018-04-23T12:58:11.381Z,3.43
2018-04-23T13:00:38.075Z,5.80
2018-04-23T13:03:04.652Z,4.23
2018-04-23T13:05:31.041Z,6.10
2018-04-23T13:07:57.421Z,3.97
2018-04-23T13:10:23.953Z,4.40
2018-04-23T13:12:50.858Z,6.33
2018-04-23T13:15:17.332Z,8.17
2018-04-23T13:17:43.765Z,4.63
2018-04-23T13:20:10.146Z,3.70
2018-04-23T13:22:36.527Z,6.30
2018-04-23T13:25:02.970Z,5.50
2018-04-23T13:27:29.353Z,4.47
2018-04-23T13:29:55.830Z,3.43
2018-04-23T13:32:22.205Z,9.10
2018-04-23T13:34:48.799Z,4.37
2018-04-23T13:37:15.366Z,6.27
2018-04-23T13:39:41.930Z,4.50
2018-04-23T13:42:08.415Z,4.93
2018-04-23T13:44:35.030Z,4.87
2018-04-23T13:47:01.410Z,4.20
2018-04-23T13:49:27.809Z,6.47
2018-04-23T13:51:54.327Z,4.87
2018-04-23T13:54:20.882Z,4.73
2018-04-23T13:56:47.253Z,6.80
2018-04-23T13:59:13.602Z,6.00
2018-04-23T14:01:39.999Z,2.77
2018-04-23T14:04:06.500Z,4.87
2018-04-23T14:06:32.913Z,4.47
2018-04-23T14:08:59.483Z,5.30
2018-04-23T14:11:25.897Z,6.23
2018-04-23T14:13:52.306Z,6.33
2018-04-23T14:16:18.909Z,9.55
2018-04-23T14:18:45.304Z,7.57
2018-04-23T14:21:11.859Z,5.73
2018-04-23T14:23:38.221Z,11.90
2018-04-23T14:26:04.577Z,8.03
2018-04-23T14:28:31.180Z,5.50
2018-04-23T14:30:57.550Z,6.97
2018-04-23T14:33:24.008Z,11.77
2018-04-23T14:35:50.557Z,3.90
2018-04-23T14:38:16.909Z,4.93
2018-04-23T14:40:43.242Z,6.10
2018-04-23T14:43:09.598Z,6.93
2018-04-23T14:45:35.957Z,6.20
2018-04-23T14:48:02.387Z,4.27
2018-04-23T14:50:28.783Z,5.13
2018-04-23T14:52:55.257Z,5.07
2018-04-23T14:55:21.646Z,4.13
2018-04-23T14:57:48.080Z,3.57
2018-04-23T15:00:14.463Z,4.53
2018-04-23T15:02:40.933Z,5.27
2018-04-23T15:05:07.334Z,3.63
2018-04-23T15:07:33.759Z,6.80
2018-04-23T15:10:00.086Z,4.93
2018-04-23T15:12:26.521Z,6.47
2018-04-23T15:14:52.906Z,6.50
2018-04-23T15:17:19.413Z,7.43
2018-04-23T15:19:45.922Z,6.63
2018-04-23T15:22:12.405Z,11.17
2018-04-23T15:24:38.754Z,6.93
2018-04-23T15:27:05.248Z,8.43
2018-04-23T15:29:31.614Z,8.67
2018-04-23T15:31:58.025Z,6.80
2018-04-23T15:34:24.457Z,5.37
2018-04-23T15:36:50.876Z,7.10
2018-04-23T15:39:17.210Z,4.63
2018-04-23T15:41:43.583Z,5.60
2018-04-23T15:44:10.008Z,4.77
2018-04-23T15:46:36.511Z,6.27
2018-04-23T15:49:02.871Z,7.17
2018-04-23T15:51:29.279Z,5.57
2018-04-23T15:53:55.652Z,5.80
2018-04-23T15:56:22.001Z,6.83
2018-04-23T15:58:48.392Z,8.57
2018-04-23T16:01:14.982Z,5.60
2018-04-23T16:03:41.382Z,6.00
2018-04-23T16:06:07.959Z,7.30
2018-04-23T16:08:34.434Z,4.83
2018-04-23T16:11:00.817Z,6.77
2018-04-23T16:13:27.156Z,5.87
2018-04-23T16:15:53.613Z,6.50
2018-04-23T16:18:20.036Z,6.23
2018-04-23T16:20:46.480Z,6.63
2018-04-23T16:23:13.028Z,5.57
2018-04-23T16:25:39.448Z,6.37
2018-04-23T16:28:05.905Z,8.83
2018-04-23T16:30:32.300Z,10.00
2018-04-23T16:32:58.689Z,9.17
2018-04-23T16:35:25.086Z,8.50
2018-04-23T16:37:51.529Z,7.53
2018-04-23T16:40:17.885Z,7.77
2018-04-23T16:42:44.246Z,10.33
2018-04-23T16:45:10.712Z,5.63
2018-04-23T16:47:37.410Z,5.63
2018-04-23T16:50:03.839Z,9.70
2018-04-23T16:52:30.215Z,10.07
2018-04-23T16:54:56.568Z,8.67
2018-04-23T16:57:22.952Z,9.50
2018-04-23T16:59:49.445Z,6.90
2018-04-23T17:02:15.847Z,11.30
2018-04-23T17:04:42.236Z,11.07
2018-04-23T17:07:08.569Z,14.80
2018-04-23T17:09:34.957Z,10.33
2018-04-23T17:12:01.377Z,11.47
2018-04-23T17:14:27.745Z,12.20
2018-04-23T17:16:54.141Z,13.60
2018-04-23T17:19:20.573Z,16.73
2018-04-23T17:21:47.083Z,13.07
2018-04-23T17:24:13.631Z,11.63
2018-04-23T17:26:40.153Z,11.00
2018-04-23T17:29:07.140Z,8.57
2018-04-23T17:31:33.599Z,8.47
2018-04-23T17:34:00.005Z,7.63
2018-04-23T17:36:26.427Z,9.73
2018-04-23T17:38:52.838Z,6.97
2018-04-23T17:41:19.415Z,6.23
2018-04-23T17:43:45.813Z,5.07
2018-04-23T17:46:12.283Z,9.63
2018-04-23T17:48:38.809Z,5.93
2018-04-23T17:51:06.709Z,7.23
2018-04-23T17:53:33.378Z,8.00
2018-04-23T17:55:59.824Z,8.00
2018-04-23T17:58:26.213Z,6.17
2018-04-23T18:00:52.614Z,6.00
2018-04-23T18:03:19.355Z,9.40
2018-04-23T18:05:45.740Z,6.03
2018-04-23T18:08:12.772Z,5.47
2018-04-23T18:10:39.653Z,7.07
2018-04-23T18:13:06.061Z,7.80
2018-04-23T18:15:32.549Z,5.77
2018-04-23T18:17:58.878Z,7.03
2018-04-23T18:20:25.154Z,4.90
2018-04-23T18:22:51.641Z,5.70
2018-04-23T18:25:17.971Z,6.20
2018-04-23T18:27:44.277Z,6.57
2018-04-23T18:30:10.927Z,5.67
2018-04-23T18:32:37.291Z,5.83
2018-04-23T18:35:03.692Z,5.57
2018-04-23T18:37:30.123Z,7.17
2018-04-23T18:39:56.964Z,10.93
2018-04-23T18:42:23.456Z,10.00
2018-04-23T18:44:49.807Z,13.30
2018-04-23T18:47:16.110Z,13.47
2018-04-23T18:49:42.389Z,11.60
2018-04-23T18:52:08.774Z,13.67
2018-04-23T18:54:35.268Z,10.43
2018-04-23T18:57:01.613Z,8.90
2018-04-23T18:59:28.125Z,13.80
2018-04-23T19:01:54.503Z,11.10
2018-04-23T19:04:20.958Z,8.60
2018-04-23T19:06:47.377Z,10.70
2018-04-23T19:09:13.710Z,8.90
2018-04-23T19:11:40.101Z,7.37
2018-04-23T19:14:06.513Z,7.40
2018-04-23T19:16:32.841Z,9.80
2018-04-23T19:18:59.240Z,7.30
2018-04-23T19:21:25.574Z,7.50
2018-04-23T19:23:51.950Z,7.27
2018-04-23T19:26:18.293Z,11.63
2018-04-23T19:28:44.789Z,8.30
2018-04-23T19:31:11.099Z,11.30
2018-04-23T19:33:37.394Z,9.60
2018-04-23T19:36:03.776Z,9.70
2018-04-23T19:38:30.179Z,10.17
2018-04-23T19:40:56.562Z,10.73
2018-04-23T19:43:22.895Z,10.63
2018-04-23T19:45:49.181Z,12.50
2018-04-23T19:48:15.588Z,5.53
2018-04-23T19:50:42.025Z,11.07
2018-04-23T19:53:08.423Z,9.10
2018-04-23T19:55:34.851Z,6.03
2018-04-23T19:58:01.242Z,9.30
2018-04-23T20:00:27.547Z,5.20
2018-04-23T20:02:53.881Z,7.07
2018-04-23T20:05:20.284Z,9.97
2018-04-23T20:07:46.616Z,11.87
2018-04-23T20:10:12.947Z,9.87
2018-04-23T20:12:39.340Z,13.60
2018-04-23T20:15:05.685Z,8.47
2018-04-23T20:17:32.026Z,9.23
2018-04-23T20:19:58.331Z,8.93
2018-04-23T20:22:24.687Z,7.60
2018-04-23T20:24:51.119Z,12.73
2018-04-23T20:27:17.423Z,9.80
2018-04-23T20:29:43.792Z,6.70
2018-04-23T20:32:10.199Z,7.07
2018-04-23T20:34:36.626Z,9.63
2018-04-23T20:37:02.985Z,9.57
2018-04-23T20:39:29.981Z,12.37
2018-04-23T20:41:57.282Z,8.37
2018-04-23T20:44:24.749Z,10.33
2018-04-23T20:46:52.172Z,8.70
2018-04-23T20:49:19.118Z,9.37
2018-04-23T20:51:45.664Z,14.87
2018-04-23T20:54:12.088Z,11.57
2018-04-23T20:56:39.957Z,10.63
2018-04-23T20:59:06.472Z,9.40
2018-04-23T21:01:33.089Z,13.53
2018-04-23T21:03:59.638Z,8.03
2018-04-23T21:06:26.201Z,9.20
2018-04-23T21:08:52.975Z,7.40
2018-04-23T21:11:19.622Z,12.43
2018-04-23T21:13:46.198Z,8.93
2018-04-23T21:16:12.701Z,11.03
2018-04-23T21:18:39.431Z,10.67
2018-04-23T21:21:05.936Z,9.47
2018-04-23T21:23:32.367Z,8.77
2018-04-23T21:25:58.818Z,9.87
2018-04-23T21:28:25.185Z,11.47
2018-04-23T21:30:51.711Z,7.60
2018-04-23T21:33:18.043Z,10.13
2018-04-23T21:35:44.454Z,11.13
2018-04-23T21:38:10.863Z,7.37
2018-04-23T21:40:37.170Z,8.70
2018-04-23T21:43:03.576Z,10.20
2018-04-23T21:45:29.943Z,8.97
2018-04-23T21:47:56.288Z,8.87
2018-04-23T21:50:22.698Z,7.80
2018-04-23T21:52:49.173Z,10.03
2018-04-23T21:55:15.588Z,6.00
2018-04-23T21:57:41.919Z,5.60
2018-04-23T22:00:08.327Z,9.53
2018-04-23T22:02:34.806Z,15.63
2018-04-23T22:05:01.119Z,8.27
2018-04-23T22:07:27.534Z,6.63
2018-04-23T22:09:53.902Z,8.10
2018-04-23T22:12:20.246Z,7.27
2018-04-23T22:14:46.580Z,8.43
2018-04-23T22:17:12.960Z,8.20
2018-04-23T22:19:39.308Z,9.37
2018-04-23T22:22:05.685Z,7.37
2018-04-23T22:24:32.023Z,8.40
2018-04-23T22:26:58.344Z,9.30
2018-04-23T22:29:24.815Z,5.57
2018-04-23T22:31:51.363Z,5.83
2018-04-23T22:34:17.767Z,8.53
2018-04-23T22:36:44.154Z,7.90
2018-04-23T22:39:10.474Z,6.23
2018-04-23T22:41:42.999Z,6.00
2018-04-23T22:44:09.338Z,6.73
2018-04-23T22:46:35.742Z,4.90
2018-04-23T22:49:02.043Z,4.83
2018-04-23T22:51:28.442Z,5.30
2018-04-23T22:53:54.770Z,5.93
2018-04-23T22:56:21.135Z,5.87
2018-04-23T22:58:47.570Z,5.40
2018-04-23T23:01:14.034Z,10.70
2018-04-23T23:03:40.461Z,7.40
2018-04-23T23:06:07.045Z,6.23
2018-04-23T23:08:33.444Z,7.23
2018-04-23T23:10:59.847Z,5.90
2018-04-23T23:13:26.274Z,8.10
2018-04-23T23:15:52.642Z,6.87
2018-04-23T23:18:19.138Z,7.27
2018-04-23T23:20:45.570Z,6.53
2018-04-23T23:23:11.977Z,7.60
2018-04-23T23:25:38.406Z,6.87
2018-04-23T23:28:04.816Z,6.07
2018-04-23T23:30:31.156Z,8.93
2018-04-23T23:32:57.563Z,8.53
2018-04-23T23:35:23.973Z,6.37
2018-04-23T23:37:50.349Z,6.77
2018-04-23T23:40:16.886Z,6.73
2018-04-23T23:42:43.392Z,8.40
2018-04-23T23:45:09.803Z,7.80
2018-04-23T23:47:36.224Z,6.80
2018-04-23T23:50:03.080Z,6.83
2018-04-23T23:52:29.486Z,9.30
2018-04-23T23:54:55.917Z,6.87
2018-04-23T23:57:22.292Z,7.67
2018-04-23T23:59:48.641Z,7.30
